Time;durP1;ratioP1;P1;durP2;ratioP2;P2;SDS_P1;SDS_P2;PMS_P1;PMS_P2;Temp;Humidity;BMP_temperature;BMP_pressure;BME280_temperature;BME280_humidity;BME280_pressure;Samples;Min_cycle;Max_cycle;Signal;HPM_P1;HPM_P2
2022/11/01 00:00:20;;;;;;;13.13;7.30;;;16.70;46.80;;;;;;5068973;28;20815;-73
2022/11/01 00:02:45;;;;;;;22.87;7.27;;;16.70;48.40;;;;;;5069038;28;20381;-73
2022/11/01 00:05:11;;;;;;;16.08;6.90;;;16.60;49.80;;;;;;5069772;28;20442;-72
2022/11/01 00:07:37;;;;;;;17.13;7.68;;;16.60;50.60;;;;;;5070127;28;20388;-74
2022/11/01 00:10:03;;;;;;;22.10;7.70;;;16.60;51.00;;;;;;5069801;28;20907;-73
2022/11/01 00:12:30;;;;;;;18.10;8.10;;;16.60;52.10;;;;;;5069301;22;20427;-73
2022/11/01 00:14:55;;;;;;;18.70;8.35;;;16.50;53.60;;;;;;5034309;28;20437;-75
2022/11/01 00:17:21;;;;;;;17.02;8.30;;;16.50;53.80;;;;;;5052552;28;20394;-76
2022/11/01 00:19:47;;;;;;;16.67;7.78;;;16.50;55.40;;;;;;5052729;28;20875;-77
2022/11/01 00:22:12;;;;;;;16.93;8.00;;;16.40;56.90;;;;;;5052889;28;20387;-75
2022/11/01 00:24:38;;;;;;;15.43;8.10;;;16.20;59.10;;;;;;5053289;28;20393;-75
2022/11/01 00:27:03;;;;;;;17.95;8.57;;;16.10;60.30;;;;;;5052311;28;20477;-74
2022/11/01 00:29:29;;;;;;;23.33;8.50;;;16.20;59.70;;;;;;5053200;28;20395;-77
2022/11/01 00:31:54;;;;;;;16.43;8.30;;;16.10;61.20;;;;;;5053990;28;20393;-74
2022/11/01 00:34:20;;;;;;;16.55;8.70;;;16.00;63.70;;;;;;5053202;28;20405;-75
2022/11/01 00:36:45;;;;;;;18.20;8.50;;;16.00;64.90;;;;;;5051485;28;20402;-75
2022/11/01 00:39:13;;;;;;;20.07;8.90;;;16.00;66.10;;;;;;5052321;28;20428;-75
2022/11/01 00:41:38;;;;;;;18.40;8.43;;;15.90;66.50;;;;;;5051012;28;20481;-74
2022/11/01 00:44:04;;;;;;;20.90;8.80;;;15.90;66.10;;;;;;5050865;28;20398;-75
2022/11/01 00:46:31;;;;;;;21.48;8.27;;;15.80;68.00;;;;;;5050797;28;20722;-73
2022/11/01 00:48:56;;;;;;;19.20;9.50;;;15.80;69.10;;;;;;5050637;28;20480;-73
2022/11/01 00:51:22;;;;;;;18.50;8.50;;;15.80;70.40;;;;;;5050630;28;20387;-76
2022/11/01 00:53:48;;;;;;;23.10;8.95;;;15.80;69.80;;;;;;5051018;28;20390;-74
2022/11/01 00:56:13;;;;;;;17.02;8.35;;;15.80;71.10;;;;;;5052372;28;20456;-76
2022/11/01 00:58:39;;;;;;;19.10;8.93;;;15.70;71.80;;;;;;5052408;28;20393;-75
2022/11/01 01:01:05;;;;;;;19.37;8.67;;;15.80;71.10;;;;;;5054579;28;20383;-74
2022/11/01 01:03:30;;;;;;;23.40;9.10;;;15.70;71.50;;;;;;5054963;28;20469;-75
2022/11/01 01:05:56;;;;;;;19.77;9.17;;;15.70;72.20;;;;;;5052631;28;20433;-74
2022/11/01 01:08:22;;;;;;;18.10;8.00;;;15.70;72.00;;;;;;5027063;28;20403;-75
2022/11/01 01:10:48;;;;;;;21.73;8.38;;;15.70;70.80;;;;;;5040026;28;20954;-75
2022/11/01 01:13:13;;;;;;;14.97;8.37;;;15.80;70.70;;;;;;5037768;28;20395;-73
2022/11/01 01:15:39;;;;;;;18.60;8.30;;;15.80;70.60;;;;;;5058393;28;20410;-73
2022/11/01 01:18:05;;;;;;;15.38;7.93;;;15.70;70.20;;;;;;5058192;28;20470;-72
2022/11/01 01:20:31;;;;;;;18.15;8.30;;;15.80;69.80;;;;;;5045135;28;20410;-75
2022/11/01 01:22:57;;;;;;;17.50;7.67;;;15.80;69.30;;;;;;5036645;28;20391;-75
2022/11/01 01:25:23;;;;;;;20.50;8.07;;;15.80;68.90;;;;;;5047050;28;20383;-72
2022/11/01 01:27:48;;;;;;;17.40;8.33;;;15.90;66.70;;;;;;5051022;28;20440;-75
2022/11/01 01:30:14;;;;;;;20.45;8.02;;;16.10;65.80;;;;;;5049681;28;20445;-76
2022/11/01 01:32:41;;;;;;;16.17;7.45;;;16.10;65.60;;;;;;5038623;28;20391;-74
2022/11/01 01:35:07;;;;;;;18.33;8.35;;;16.10;63.90;;;;;;5045851;28;20387;-74
2022/11/01 01:37:32;;;;;;;18.95;7.80;;;16.10;64.50;;;;;;5053897;28;20434;-72
2022/11/01 01:39:58;;;;;;;18.30;7.70;;;16.10;64.20;;;;;;5051915;28;20435;-73
2022/11/01 01:42:35;;;;;;;19.57;7.80;;;16.10;64.70;;;;;;5053761;28;20379;-72
2022/11/01 01:45:04;;;;;;;17.27;7.67;;;16.10;63.90;;;;;;5044038;28;20836;-75
2022/11/01 01:47:35;;;;;;;18.25;7.78;;;16.10;64.20;;;;;;5036427;28;20417;-73
2022/11/01 01:50:12;;;;;;;19.20;7.60;;;16.10;63.00;;;;;;5036474;28;20887;-76
2022/11/01 01:52:52;;;;;;;17.05;8.00;;;16.10;63.10;;;;;;5036705;28;20399;-73
2022/11/01 01:55:24;;;;;;;16.55;7.85;;;16.10;63.30;;;;;;5038403;28;20424;-75
2022/11/01 01:57:51;;;;;;;17.65;7.60;;;16.10;63.00;;;;;;5037736;28;20422;-74
2022/11/01 02:00:17;;;;;;;19.80;8.05;;;16.20;61.60;;;;;;5038146;28;20395;-74
2022/11/01 02:02:43;;;;;;;18.20;7.82;;;16.20;62.80;;;;;;5037386;28;20901;-75
2022/11/01 02:05:34;;;;;;;15.30;7.40;;;16.20;62.30;;;;;;5037705;28;20379;-77
2022/11/01 02:08:00;;;;;;;19.52;7.22;;;16.30;61.20;;;;;;5036484;28;20379;-75
2022/11/01 02:10:27;;;;;;;17.02;7.32;;;16.20;62.30;;;;;;5035592;28;20390;-75
2022/11/01 02:12:53;;;;;;;15.48;7.05;;;16.20;62.10;;;;;;5037394;28;20387;-75
2022/11/01 02:15:22;;;;;;;19.03;7.43;;;16.20;61.70;;;;;;5018652;28;20470;-75
2022/11/01 02:18:11;;;;;;;16.90;7.78;;;16.20;61.90;;;;;;5018153;28;20406;-73
2022/11/01 02:20:38;;;;;;;19.00;7.43;;;16.20;61.80;;;;;;5034702;28;20872;-74
2022/11/01 02:23:45;;;;;;;18.20;7.63;;;16.10;62.90;;;;;;5035652;28;20387;-73
2022/11/01 02:26:36;;;;;;;15.87;7.93;;;16.00;63.50;;;;;;5035004;28;20398;-74
2022/11/01 02:29:21;;;;;;;14.25;6.60;;;16.00;64.40;;;;;;5017858;28;20487;-72
2022/11/01 02:32:04;;;;;;;19.60;7.60;;;16.00;64.60;;;;;;5035121;28;20395;-74
2022/11/01 02:34:44;;;;;;;19.13;7.03;;;16.00;63.70;;;;;;5035164;28;20375;-74
2022/11/01 02:37:21;;;;;;;20.15;8.23;;;16.00;64.60;;;;;;5035407;28;20549;-76
2022/11/01 02:39:50;;;;;;;18.33;8.00;;;15.90;66.30;;;;;;5034752;28;20434;-74
2022/11/01 02:42:26;;;;;;;13.75;7.57;;;15.80;67.40;;;;;;5017080;28;20470;-77
2022/11/01 02:44:58;;;;;;;16.23;7.82;;;15.80;67.80;;;;;;5034709;28;20394;-73
2022/11/01 02:47:24;;;;;;;21.90;9.98;;;15.80;68.40;;;;;;5017646;28;20387;-76
2022/11/01 02:49:58;;;;;;;23.58;8.20;;;15.70;69.90;;;;;;5017408;28;20437;-73
2022/11/01 02:52:28;;;;;;;18.42;7.60;;;15.70;71.30;;;;;;5038377;28;20383;-75
2022/11/01 02:55:06;;;;;;;13.07;7.55;;;15.70;70.40;;;;;;5039301;28;20437;-73
2022/11/01 02:57:37;;;;;;;16.02;7.00;;;15.80;71.10;;;;;;5039481;28;20468;-74
2022/11/01 03:00:25;;;;;;;16.58;8.05;;;15.80;70.70;;;;;;5039039;28;20379;-74
2022/11/01 03:03:12;;;;;;;16.00;7.28;;;15.80;71.30;;;;;;5020618;28;20375;-73
2022/11/01 03:05:57;;;;;;;15.47;7.20;;;15.80;72.60;;;;;;5039576;28;20455;-74
2022/11/01 03:08:28;;;;;;;12.05;7.00;;;15.70;73.10;;;;;;5045333;28;20390;-72
2022/11/01 03:11:10;;;;;;;14.10;7.07;;;15.80;73.40;;;;;;5053416;28;20389;-72
2022/11/01 03:13:42;;;;;;;17.70;7.30;;;15.80;73.90;;;;;;5051141;28;20383;-74
2022/11/01 03:16:37;;;;;;;19.67;7.22;;;15.80;73.50;;;;;;5023955;28;20446;-75
2022/11/01 03:19:03;;;;;;;12.02;6.47;;;15.80;73.70;;;;;;5016229;28;20391;-76
2022/11/01 03:21:36;;;;;;;14.60;7.00;;;15.90;73.50;;;;;;5035421;28;20390;-76
2022/11/01 03:24:45;;;;;;;13.15;6.80;;;15.90;73.10;;;;;;5035526;28;20380;-74
2022/11/01 03:27:41;;;;;;;15.07;6.80;;;15.90;73.00;;;;;;4973028;28;20391;-75
2022/11/01 03:30:12;;;;;;;14.77;7.03;;;16.00;72.70;;;;;;5036578;28;20394;-74
2022/11/01 03:32:48;;;;;;;17.47;6.60;;;15.90;73.10;;;;;;5014289;28;20410;-74
2022/11/01 03:35:23;;;;;;;19.30;7.18;;;15.90;74.00;;;;;;5031301;28;20795;-74
2022/11/01 03:37:52;;;;;;;14.90;7.22;;;15.90;73.50;;;;;;5014192;28;20407;-75
2022/11/01 03:40:18;;;;;;;11.05;7.03;;;16.00;73.10;;;;;;5018845;28;20387;-74
2022/11/01 03:42:50;;;;;;;15.43;7.45;;;16.00;73.00;;;;;;5052958;28;20394;-73
2022/11/01 03:45:22;;;;;;;16.83;7.55;;;15.90;73.90;;;;;;5035389;28;20451;-73
2022/11/01 03:47:48;;;;;;;15.23;6.80;;;15.90;75.10;;;;;;5030213;28;20903;-75
2022/11/01 03:50:19;;;;;;;18.13;7.00;;;15.90;76.20;;;;;;5033484;28;20481;-75
2022/11/01 03:52:45;;;;;;;12.90;6.82;;;15.90;77.10;;;;;;5032676;28;20394;-74
2022/11/01 03:55:19;;;;;;;12.93;6.63;;;15.90;76.20;;;;;;5031938;28;20390;-74
2022/11/01 03:57:58;;;;;;;10.98;6.30;;;15.90;75.90;;;;;;5031052;28;20407;-73
2022/11/01 04:00:28;;;;;;;10.75;6.60;;;16.10;75.50;;;;;;5031245;28;20391;-75
2022/11/01 04:02:55;;;;;;;15.32;6.70;;;16.00;76.20;;;;;;5031821;28;20386;-74
2022/11/01 04:05:22;;;;;;;13.65;6.43;;;16.00;76.80;;;;;;5034838;28;20388;-73
2022/11/01 04:07:50;;;;;;;16.85;6.40;;;16.10;76.40;;;;;;5035593;28;20464;-74
2022/11/01 04:10:16;;;;;;;15.18;6.28;;;16.10;75.90;;;;;;5038008;28;20812;-74
2022/11/01 04:12:44;;;;;;;15.17;6.17;;;16.10;75.60;;;;;;5039226;28;20407;-74
2022/11/01 04:21:02;;;;;;;13.70;5.88;;;16.20;76.00;;;;;;5035131;28;20382;-73
2022/11/01 04:23:28;;;;;;;16.65;5.93;;;16.20;75.80;;;;;;5033417;28;20375;-74
2022/11/01 04:25:53;;;;;;;15.38;6.10;;;16.30;74.60;;;;;;5013600;28;20513;-74
2022/11/01 04:28:19;;;;;;;10.13;5.40;;;16.30;75.00;;;;;;5030574;28;20402;-74
2022/11/01 04:30:44;;;;;;;11.10;5.50;;;16.20;75.70;;;;;;5030818;28;20448;-74
2022/11/01 04:33:10;;;;;;;11.65;5.60;;;16.10;77.40;;;;;;5030621;28;20729;-75
2022/11/01 04:35:37;;;;;;;12.27;6.00;;;16.00;78.70;;;;;;5031907;28;20387;-74
2022/11/01 04:38:02;;;;;;;11.65;5.63;;;16.00;79.30;;;;;;5032515;28;20804;-74
2022/11/01 04:40:28;;;;;;;12.68;6.20;;;16.00;79.70;;;;;;5031901;28;20469;-74
2022/11/01 04:42:53;;;;;;;10.63;5.63;;;16.10;80.30;;;;;;5031996;28;20394;-74
2022/11/01 04:45:20;;;;;;;12.00;5.60;;;16.10;78.60;;;;;;5034482;28;20782;-74
2022/11/01 04:47:51;;;;;;;11.47;4.97;;;16.10;78.30;;;;;;5034266;28;20931;-73
2022/11/01 04:50:19;;;;;;;11.60;5.50;;;16.10;78.60;;;;;;5034156;28;20387;-74
2022/11/01 04:52:44;;;;;;;10.52;5.20;;;16.10;79.10;;;;;;5034027;28;20940;-74
2022/11/01 04:55:10;;;;;;;13.95;6.32;;;16.10;79.30;;;;;;5034447;28;20391;-73
2022/11/01 04:57:42;;;;;;;10.23;5.35;;;16.10;78.70;;;;;;5033896;28;20501;-73
2022/11/01 05:00:10;;;;;;;13.15;5.60;;;16.20;78.30;;;;;;5034219;28;20394;-74
2022/11/01 05:02:36;;;;;;;10.70;5.50;;;16.30;77.00;;;;;;5033882;28;20390;-74
2022/11/01 05:05:02;;;;;;;13.98;5.65;;;16.30;76.70;;;;;;5016249;28;20453;-75
2022/11/01 05:07:28;;;;;;;13.37;5.37;;;16.30;77.00;;;;;;5033948;28;20428;-73
2022/11/01 05:09:53;;;;;;;9.10;5.27;;;16.40;75.50;;;;;;5034532;28;20791;-74
2022/11/01 05:12:19;;;;;;;11.77;5.43;;;16.40;75.50;;;;;;5034244;28;20497;-73
2022/11/01 05:14:44;;;;;;;11.48;5.40;;;16.40;74.80;;;;;;5034839;28;20387;-76
2022/11/01 05:17:10;;;;;;;13.37;5.87;;;16.50;73.30;;;;;;5034295;28;20497;-75
2022/11/01 05:19:36;;;;;;;10.07;5.10;;;16.50;72.80;;;;;;5034708;28;20619;-75
2022/11/01 05:22:03;;;;;;;10.90;5.10;;;16.50;72.50;;;;;;5034885;28;20379;-75
2022/11/01 05:24:29;;;;;;;9.90;5.40;;;16.50;72.00;;;;;;5054148;28;20422;-74
2022/11/01 05:26:54;;;;;;;14.00;5.47;;;16.50;72.70;;;;;;5055030;28;20391;-74
2022/11/01 05:29:20;;;;;;;11.55;5.90;;;16.40;73.40;;;;;;5056474;28;20367;-74
2022/11/01 05:31:45;;;;;;;13.27;5.15;;;16.30;72.40;;;;;;5055577;28;20402;-75
2022/11/01 05:34:11;;;;;;;9.55;5.50;;;16.30;72.70;;;;;;5035505;28;20444;-75
2022/11/01 05:36:37;;;;;;;14.30;5.40;;;16.30;73.30;;;;;;5033822;28;20461;-75
2022/11/01 05:39:02;;;;;;;10.90;4.97;;;16.30;71.00;;;;;;5015727;28;20384;-75
2022/11/01 05:41:28;;;;;;;12.88;5.20;;;16.40;70.40;;;;;;5033329;28;20739;-75
2022/11/01 05:43:53;;;;;;;14.20;5.17;;;16.60;67.60;;;;;;5033213;28;20390;-74
2022/11/01 05:46:19;;;;;;;7.70;4.50;;;16.60;65.10;;;;;;5033322;28;20734;-74
2022/11/01 05:48:44;;;;;;;6.40;3.40;;;16.60;60.10;;;;;;5033041;28;20394;-74
2022/11/01 05:51:10;;;;;;;8.98;3.50;;;16.80;52.60;;;;;;5032897;28;20398;-74
2022/11/01 05:53:36;;;;;;;10.70;3.50;;;16.90;48.70;;;;;;5033105;28;20479;-74
2022/11/01 05:56:01;;;;;;;6.50;3.40;;;16.90;48.50;;;;;;5032802;28;20418;-74
2022/11/01 05:58:27;;;;;;;9.10;3.97;;;16.90;48.10;;;;;;5033091;28;20395;-74
2022/11/01 06:00:57;;;;;;;7.20;3.38;;;16.90;47.70;;;;;;5032682;28;20452;-74
2022/11/01 06:03:23;;;;;;;10.10;3.40;;;16.80;47.90;;;;;;5033129;28;20394;-74
2022/11/01 06:05:48;;;;;;;10.83;3.50;;;16.80;48.10;;;;;;5015103;28;20386;-75
2022/11/01 06:08:14;;;;;;;5.97;2.95;;;16.80;47.20;;;;;;5032842;28;20391;-74
2022/11/01 06:10:40;;;;;;;8.13;3.10;;;16.80;45.80;;;;;;5032467;28;20387;-73
2022/11/01 06:13:05;;;;;;;14.37;3.10;;;16.90;44.70;;;;;;5079674;22;20474;-73
2022/11/01 06:15:30;;;;;;;7.90;3.00;;;16.90;44.30;;;;;;5073380;28;20383;-73
2022/11/01 06:17:57;;;;;;;6.78;2.10;;;16.90;44.00;;;;;;5075142;28;20461;-73
2022/11/01 06:20:27;;;;;;;5.95;2.50;;;16.80;41.80;;;;;;5074446;28;20940;-72
2022/11/01 06:22:52;;;;;;;5.47;2.20;;;16.70;41.60;;;;;;5076327;28;20403;-73
2022/11/01 06:25:19;;;;;;;5.70;2.20;;;16.60;40.40;;;;;;5078523;28;20772;-76
2022/11/01 06:27:44;;;;;;;6.87;1.83;;;16.50;39.30;;;;;;5076187;28;20495;-73
2022/11/01 06:30:10;;;;;;;7.17;1.90;;;16.40;39.20;;;;;;5073194;28;20475;-73
2022/11/01 06:32:36;;;;;;;7.30;2.10;;;16.30;39.50;;;;;;5073661;28;20395;-74
2022/11/01 06:35:01;;;;;;;5.90;2.10;;;16.30;38.50;;;;;;5073811;28;20399;-73
2022/11/01 06:37:27;;;;;;;5.95;2.05;;;16.10;39.10;;;;;;5073832;28;20779;-74
2022/11/01 06:39:52;;;;;;;5.90;2.03;;;16.00;39.20;;;;;;5073811;28;20416;-73
2022/11/01 06:42:18;;;;;;;4.70;2.20;;;16.00;39.30;;;;;;5071880;28;20823;-74
2022/11/01 06:44:43;;;;;;;7.07;1.90;;;16.00;38.60;;;;;;5073000;28;20465;-73
2022/11/01 06:47:11;;;;;;;3.70;1.85;;;15.90;37.90;;;;;;5072461;28;20768;-74
2022/11/01 06:49:36;;;;;;;4.55;1.80;;;15.80;38.60;;;;;;5071949;28;20388;-73
2022/11/01 06:52:03;;;;;;;5.10;1.80;;;15.80;38.60;;;;;;5071650;28;20375;-73
2022/11/01 06:54:30;;;;;;;8.07;1.80;;;15.70;38.90;;;;;;5071643;28;20384;-73
2022/11/01 06:56:55;;;;;;;4.00;1.60;;;15.80;37.60;;;;;;5072101;28;20435;-73
2022/11/01 06:59:21;;;;;;;6.70;1.60;;;15.70;37.70;;;;;;5072168;28;20387;-73
2022/11/01 07:01:47;;;;;;;4.10;1.80;;;15.60;37.40;;;;;;5071394;28;20759;-73
2022/11/01 07:04:12;;;;;;;4.25;1.60;;;15.50;36.60;;;;;;5072001;28;20744;-72
2022/11/01 07:06:38;;;;;;;4.20;1.43;;;15.40;35.50;;;;;;5071175;28;20466;-73
2022/11/01 07:09:03;;;;;;;5.17;1.60;;;15.30;35.30;;;;;;5072035;28;20392;-73
2022/11/01 07:11:29;;;;;;;3.45;1.40;;;15.30;35.50;;;;;;5069972;28;20383;-74
2022/11/01 07:13:54;;;;;;;5.78;1.65;;;15.20;36.30;;;;;;5071569;28;20449;-74
2022/11/01 07:16:20;;;;;;;6.20;1.60;;;15.00;36.70;;;;;;5071664;28;20756;-72
2022/11/01 07:18:46;;;;;;;9.17;2.00;;;15.00;37.00;;;;;;5071550;28;20383;-73
2022/11/01 07:21:11;;;;;;;6.03;1.70;;;14.90;37.50;;;;;;5071289;28;20375;-74
2022/11/01 07:23:37;;;;;;;7.70;1.60;;;14.90;37.80;;;;;;5071895;28;20375;-74
2022/11/01 07:26:02;;;;;;;8.90;1.73;;;14.80;38.50;;;;;;5072068;28;20518;-74
2022/11/01 07:28:29;;;;;;;5.82;1.60;;;14.80;39.00;;;;;;5074934;28;20871;-73
2022/11/01 07:30:56;;;;;;;4.10;1.60;;;14.70;39.20;;;;;;5076194;28;20393;-72
2022/11/01 07:33:21;;;;;;;6.77;1.80;;;14.70;39.40;;;;;;5077036;28;20382;-73
2022/11/01 07:35:48;;;;;;;6.25;1.65;;;14.70;39.60;;;;;;5071163;28;21042;-72
2022/11/01 07:38:14;;;;;;;6.75;1.90;;;14.70;39.50;;;;;;5071670;28;20380;-72
2022/11/01 07:40:40;;;;;;;7.75;1.67;;;14.60;39.50;;;;;;5071420;28;20382;-73
2022/11/01 07:43:06;;;;;;;7.03;1.80;;;14.60;39.80;;;;;;5071217;28;20375;-73
2022/11/01 07:45:34;;;;;;;5.93;1.43;;;14.70;39.90;;;;;;5071579;28;20372;-74
2022/11/01 07:48:05;;;;;;;2.92;1.38;;;14.70;39.90;;;;;;5071624;28;20397;-73
2022/11/01 07:50:32;;;;;;;3.92;1.50;;;14.70;39.30;;;;;;5075042;28;20406;-72
2022/11/01 07:53:03;;;;;;;5.65;1.90;;;14.80;38.70;;;;;;5076992;28;20372;-72
2022/11/01 07:55:29;;;;;;;6.63;1.60;;;14.80;38.80;;;;;;5075021;28;20379;-74
2022/11/01 07:57:55;;;;;;;5.68;1.60;;;14.90;38.50;;;;;;5073992;28;20422;-74
2022/11/01 08:00:21;;;;;;;7.60;1.60;;;15.30;37.10;;;;;;5079249;28;20413;-73
2022/11/01 08:02:46;;;;;;;5.80;1.40;;;15.90;34.10;;;;;;5075318;28;20388;-73
2022/11/01 08:05:12;;;;;;;2.97;1.50;;;16.00;33.20;;;;;;5071359;28;20437;-73
2022/11/01 08:07:38;;;;;;;3.65;1.40;;;15.70;33.20;;;;;;5071464;28;20470;-74
2022/11/01 08:10:07;;;;;;;5.72;1.50;;;15.60;34.00;;;;;;5071514;28;20433;-73
2022/11/01 08:12:32;;;;;;;8.13;1.67;;;15.40;34.40;;;;;;5071061;28;20461;-73
2022/11/01 08:14:58;;;;;;;7.80;1.80;;;15.20;34.80;;;;;;5071355;28;20713;-73
2022/11/01 08:17:24;;;;;;;6.93;1.70;;;15.20;35.10;;;;;;5071320;28;20830;-74
2022/11/01 08:19:49;;;;;;;6.10;1.53;;;15.20;35.30;;;;;;5074878;28;20398;-73
2022/11/01 08:22:15;;;;;;;7.57;1.98;;;15.20;34.80;;;;;;5074694;28;20380;-74
2022/11/01 08:24:40;;;;;;;10.10;2.20;;;15.20;32.20;;;;;;5074766;28;20406;-73
2022/11/01 08:27:06;;;;;;;11.30;2.23;;;15.10;31.90;;;;;;5074964;28;20380;-74
2022/11/01 08:29:31;;;;;;;11.30;2.22;;;15.00;31.40;;;;;;5073968;28;20413;-73
2022/11/01 08:31:57;;;;;;;12.32;2.60;;;15.10;30.50;;;;;;5076137;28;20383;-73
2022/11/01 08:34:22;;;;;;;10.93;2.63;;;15.10;29.20;;;;;;5077318;28;20472;-74
2022/11/01 08:36:48;;;;;;;16.60;2.50;;;15.10;29.00;;;;;;5078362;28;20406;-72
2022/11/01 08:39:13;;;;;;;9.88;2.30;;;15.10;28.00;;;;;;5078181;28;20391;-72
2022/11/01 08:41:39;;;;;;;11.35;2.75;;;15.10;28.70;;;;;;5075555;28;20823;-74
2022/11/01 08:44:04;;;;;;;17.60;3.50;;;15.10;29.10;;;;;;5076847;28;20389;-73
2022/11/01 08:46:30;;;;;;;13.37;2.93;;;15.10;28.40;;;;;;5081373;28;20461;-73
2022/11/01 08:48:58;;;;;;;15.35;3.20;;;15.20;28.00;;;;;;5080359;28;20391;-73
2022/11/01 08:51:24;;;;;;;13.90;3.10;;;15.20;27.50;;;;;;5084089;28;20414;-73
2022/11/01 08:53:59;;;;;;;15.90;2.90;;;15.30;27.50;;;;;;5073953;28;20380;-75
2022/11/01 08:56:26;;;;;;;15.45;3.05;;;15.30;27.50;;;;;;5075516;28;20403;-73
2022/11/01 08:58:52;;;;;;;21.02;3.20;;;15.20;27.20;;;;;;5075454;28;20390;-73
2022/11/01 09:01:19;;;;;;;15.80;3.22;;;15.30;27.50;;;;;;5075510;28;20384;-73
2022/11/01 09:03:45;;;;;;;11.82;2.30;;;15.30;27.10;;;;;;5075392;28;20391;-74
2022/11/01 09:06:11;;;;;;;13.05;2.55;;;15.40;27.40;;;;;;5075859;28;20379;-74
2022/11/01 09:08:37;;;;;;;13.32;2.80;;;15.40;27.20;;;;;;5076919;28;20384;-72
2022/11/01 09:11:05;;;;;;;13.55;3.13;;;15.40;27.40;;;;;;5077032;28;20460;-73
2022/11/01 09:13:31;;;;;;;15.80;3.20;;;15.50;27.40;;;;;;5079418;28;20939;-73
2022/11/01 09:15:57;;;;;;;15.27;2.55;;;15.50;27.20;;;;;;5077261;28;20386;-75
2022/11/01 09:18:22;;;;;;;12.82;2.67;;;15.50;27.00;;;;;;5077738;28;20392;-73
2022/11/01 09:20:55;;;;;;;12.52;3.00;;;15.60;26.80;;;;;;5076261;28;20384;-74
2022/11/01 09:23:21;;;;;;;11.80;2.80;;;15.60;26.60;;;;;;5075726;28;20380;-72
2022/11/01 09:25:46;;;;;;;13.20;3.00;;;15.60;26.70;;;;;;5075353;28;20402;-74
2022/11/01 09:28:12;;;;;;;14.77;2.90;;;15.70;26.70;;;;;;5074521;28;20383;-74
2022/11/01 09:30:39;;;;;;;16.92;3.95;;;15.80;26.90;;;;;;5075361;28;20380;-74
2022/11/01 09:33:05;;;;;;;11.57;2.90;;;15.90;25.50;;;;;;5075032;28;20384;-73
2022/11/01 09:35:31;;;;;;;11.95;2.95;;;15.90;25.90;;;;;;5074984;28;20454;-72
2022/11/01 09:37:58;;;;;;;11.70;3.15;;;15.90;26.20;;;;;;5072873;28;20450;-73
2022/11/01 09:40:29;;;;;;;14.93;3.05;;;16.00;26.10;;;;;;5074094;28;20376;-73
2022/11/01 09:42:55;;;;;;;19.52;2.50;;;16.10;26.10;;;;;;5074230;28;20368;-73
2022/11/01 09:45:25;;;;;;;13.97;2.90;;;16.10;25.40;;;;;;5074330;28;20876;-72
2022/11/01 09:47:53;;;;;;;9.95;2.53;;;16.00;25.80;;;;;;5073785;28;20390;-73
2022/11/01 09:50:29;;;;;;;9.05;2.65;;;16.00;25.90;;;;;;5074233;28;20638;-74
2022/11/01 09:52:56;;;;;;;10.43;2.50;;;16.00;25.90;;;;;;5073912;28;20383;-73
2022/11/01 09:55:34;;;;;;;9.53;2.70;;;16.00;26.10;;;;;;5074574;28;20743;-74
2022/11/01 09:58:13;;;;;;;9.53;3.20;;;16.00;25.60;;;;;;5074279;28;20475;-73
2022/11/01 10:00:47;;;;;;;14.25;3.40;;;16.00;25.90;;;;;;5074343;28;20863;-72
2022/11/01 10:03:24;;;;;;;15.27;2.70;;;16.00;26.00;;;;;;5073404;28;20434;-74
2022/11/01 10:06:07;;;;;;;11.73;2.53;;;16.10;26.40;;;;;;5073883;28;20372;-72
2022/11/01 10:09:12;;;;;;;13.38;3.15;;;16.10;26.40;;;;;;5072876;28;20376;-72
2022/11/01 10:12:01;;;;;;;14.60;3.00;;;16.20;25.70;;;;;;5073850;28;20812;-73
2022/11/01 10:14:37;;;;;;;14.77;2.60;;;16.20;25.60;;;;;;5072672;28;20394;-73
2022/11/01 10:17:09;;;;;;;11.98;2.70;;;16.30;25.60;;;;;;5073337;28;20407;-74
2022/11/01 10:19:35;;;;;;;14.52;2.70;;;16.30;25.40;;;;;;5073656;28;20384;-73
2022/11/01 10:22:10;;;;;;;12.18;2.60;;;16.30;25.10;;;;;;5072295;28;20376;-74
2022/11/01 10:24:47;;;;;;;8.32;2.58;;;16.30;25.60;;;;;;5073635;28;20411;-74
2022/11/01 10:27:21;;;;;;;12.45;3.10;;;16.40;25.50;;;;;;5072287;28;20488;-74
2022/11/01 10:30:04;;;;;;;14.70;3.15;;;16.40;25.40;;;;;;5073811;28;20534;-73
2022/11/01 10:32:54;;;;;;;13.32;3.08;;;16.40;24.90;;;;;;5073283;28;20395;-72
2022/11/01 10:35:42;;;;;;;15.27;2.78;;;16.40;25.50;;;;;;5072252;28;20411;-74
2022/11/01 10:38:22;;;;;;;13.33;2.70;;;16.40;25.00;;;;;;5073229;28;20407;-74
2022/11/01 10:40:54;;;;;;;18.97;3.50;;;16.40;24.80;;;;;;5072523;28;20431;-72
2022/11/01 10:43:24;;;;;;;16.35;3.10;;;16.40;25.20;;;;;;5073340;28;20406;-73
2022/11/01 10:45:54;;;;;;;13.23;3.25;;;16.50;25.20;;;;;;5073133;28;20437;-74
2022/11/01 10:48:42;;;;;;;18.15;2.80;;;16.50;24.90;;;;;;5073315;28;20745;-74
2022/11/01 10:51:09;;;;;;;14.57;2.90;;;16.70;25.10;;;;;;5073251;28;20372;-73
2022/11/01 10:53:45;;;;;;;12.68;2.80;;;16.60;24.30;;;;;;5073317;28;20887;-73
2022/11/01 10:56:18;;;;;;;10.55;2.40;;;16.60;24.40;;;;;;5074738;28;20399;-74
2022/11/01 10:58:53;;;;;;;17.10;3.08;;;16.70;24.20;;;;;;5075115;28;20376;-74
2022/11/01 11:01:23;;;;;;;13.43;3.10;;;16.60;24.00;;;;;;5073006;28;20760;-73
2022/11/01 11:03:50;;;;;;;12.23;3.03;;;16.60;23.60;;;;;;5077365;28;20497;-73
2022/11/01 11:06:17;;;;;;;15.55;3.17;;;16.60;23.90;;;;;;5075870;28;20737;-73
2022/11/01 11:08:48;;;;;;;12.60;2.63;;;16.60;23.90;;;;;;5072599;28;20836;-73
2022/11/01 11:11:16;;;;;;;11.73;2.90;;;16.70;23.90;;;;;;5072700;28;20391;-74
2022/11/01 11:13:49;;;;;;;13.52;2.65;;;16.70;23.30;;;;;;5072851;28;20386;-73
2022/11/01 11:16:29;;;;;;;11.37;3.00;;;16.70;23.90;;;;;;5074337;28;20462;-74
2022/11/01 11:19:29;;;;;;;13.85;3.40;;;16.70;24.30;;;;;;5073743;28;20391;-72
2022/11/01 11:21:56;;;;;;;19.15;3.40;;;16.80;23.90;;;;;;5058508;28;20395;-74
2022/11/01 11:24:24;;;;;;;17.40;2.80;;;16.90;23.50;;;;;;5071542;28;20398;-74
2022/11/01 11:26:53;;;;;;;13.70;3.20;;;16.90;23.20;;;;;;5073256;28;20379;-73
2022/11/01 11:29:50;;;;;;;15.88;3.22;;;16.90;23.20;;;;;;5073054;28;20384;-74
2022/11/01 11:32:22;;;;;;;14.80;2.90;;;16.90;23.80;;;;;;5073350;28;20852;-73
2022/11/01 11:34:57;;;;;;;14.57;3.20;;;16.90;24.40;;;;;;5073792;28;20411;-73
2022/11/01 11:37:25;;;;;;;15.00;3.35;;;16.90;23.30;;;;;;5072402;28;20410;-74
2022/11/01 11:40:18;;;;;;;15.52;3.15;;;16.90;23.20;;;;;;5071861;28;20391;-73
2022/11/01 11:42:48;;;;;;;13.68;2.92;;;16.90;22.80;;;;;;5081280;28;20380;-74
2022/11/01 11:45:30;;;;;;;13.27;3.10;;;17.00;23.00;;;;;;5074704;28;20387;-74
2022/11/01 11:48:12;;;;;;;10.60;2.83;;;17.00;23.40;;;;;;5072274;28;20467;-74
2022/11/01 11:50:38;;;;;;;13.35;2.90;;;17.00;22.60;;;;;;5072334;28;20387;-73
2022/11/01 11:53:25;;;;;;;15.95;2.70;;;17.00;22.20;;;;;;5071441;28;20395;-73
2022/11/01 11:55:56;;;;;;;16.85;2.90;;;17.00;22.30;;;;;;5071768;28;20394;-74
2022/11/01 11:58:31;;;;;;;12.15;3.20;;;17.00;22.20;;;;;;5071871;28;20380;-73
2022/11/01 12:01:08;;;;;;;17.80;3.00;;;17.00;22.30;;;;;;5071627;28;20387;-72
2022/11/01 12:03:47;;;;;;;12.00;2.88;;;17.00;22.20;;;;;;5072236;28;20402;-76
2022/11/01 12:06:19;;;;;;;14.00;3.00;;;17.00;22.90;;;;;;5072044;28;20386;-74
2022/11/01 12:08:52;;;;;;;14.15;3.20;;;17.00;22.50;;;;;;5070737;28;20756;-73
2022/11/01 12:11:18;;;;;;;16.52;3.50;;;17.00;23.10;;;;;;5070728;28;20549;-74
2022/11/01 12:13:59;;;;;;;10.20;2.72;;;17.10;23.10;;;;;;5088073;22;20582;-74
2022/11/01 12:16:24;;;;;;;17.35;3.42;;;17.20;22.90;;;;;;5077313;28;20431;-74
2022/11/01 12:18:59;;;;;;;10.40;2.90;;;17.10;22.70;;;;;;5077261;28;20394;-74
2022/11/01 12:21:29;;;;;;;10.10;2.90;;;17.10;22.60;;;;;;5073795;28;20415;-74
2022/11/01 12:24:00;;;;;;;14.85;3.38;;;17.10;22.50;;;;;;5071864;28;20387;-74
2022/11/01 12:26:28;;;;;;;16.60;3.05;;;17.20;22.80;;;;;;5088107;28;20413;-73
2022/11/01 12:29:36;;;;;;;18.88;3.50;;;17.30;22.30;;;;;;5072296;28;20747;-73
2022/11/01 12:32:23;;;;;;;18.42;3.25;;;17.30;22.20;;;;;;5071985;28;20725;-73
2022/11/01 12:34:51;;;;;;;11.65;2.70;;;17.30;22.30;;;;;;5070195;28;20414;-74
2022/11/01 12:37:23;;;;;;;15.73;3.55;;;17.30;22.30;;;;;;5086908;28;20404;-73
2022/11/01 12:39:55;;;;;;;14.38;3.00;;;17.20;22.60;;;;;;5069990;28;20391;-73
2022/11/01 12:42:32;;;;;;;19.50;3.45;;;17.30;22.70;;;;;;5086532;28;20387;-73
2022/11/01 12:45:24;;;;;;;17.88;3.50;;;17.30;22.90;;;;;;5069793;28;20388;-74
2022/11/01 12:47:58;;;;;;;15.15;2.80;;;17.30;22.40;;;;;;5069685;28;20451;-74
2022/11/01 12:50:32;;;;;;;17.95;3.50;;;17.30;22.30;;;;;;5071214;28;20862;-74
2022/11/01 12:53:22;;;;;;;14.18;3.20;;;17.40;23.20;;;;;;5070822;28;20384;-72
2022/11/01 12:55:48;;;;;;;12.93;3.17;;;17.30;23.10;;;;;;5071319;28;20391;-74
2022/11/01 12:58:17;;;;;;;10.50;2.83;;;17.30;22.30;;;;;;5071126;28;20478;-73